Okeanos Explorer — WTDH — position and weather

sailwx.info

Track history (hours):
 
Tides and Currents Weather Stations Pressure Air Temp Water Temp Dewpoint Dewpoint Depression Visibility Wind Speed Wind Dir Waves Ship Positions

Oceanographic research ship Okeanos Explorer (USA)

Ship's website: http://oceanexplorer.noaa.gov/okeanos/

Last reported at 2017-Apr-20 19:00 UTC. Time now 2017-Apr-25 00:54 UTC.
Position S 14°18' W 170°42'.

Length 69 m; draft 5 m.

Type: Other ship. MMSI: 369888000.

Wind from 030 at 2 knots

Barometer 1011.5 mb
Water temperature 29.9 ° C

Date/timePositionNaut miles runAvg speedWind from/ knotsBaromVisibWave heightAir tempDewpointWater temp
2017-Apr-20 19:00S 14°18' W 170°42'0 0.0 030 / 21011.5 29.9
2017-Apr-20 18:00S 14°18' W 170°42'6 6.0 260 / 21011.1 29.9
2017-Apr-20 17:00S 14°24' W 170°42'0 0.0 090 / 51010.6 29.9
2017-Apr-20 16:00S 14°24' W 170°42'6 5.8 130 / 91010.0 29.8
2017-Apr-20 15:00S 14°24' W 170°48'6 5.8 030 / 51009.5 29.8
2017-Apr-20 14:00S 14°24' W 170°54'6 5.8 050 / 61009.6 29.8
2017-Apr-20 13:00S 14°24' W 171°00'1313.3 070 / 91009.7 29.7
2017-Apr-20 12:00S 14°12' W 170°54'0 0.0 090 / 81006.2 5.4 28.525.029.8
2017-Apr-20 11:00S 14°12' W 170°54'6 5.8 090 / 101010.5 29.9
2017-Apr-20 10:00S 14°12' W 170°48'6 5.8 100 / 121010.2 29.9
2017-Apr-20 09:00S 14°12' W 170°54'6 6.0 120 / 111010.4 30.0
2017-Apr-20 08:00S 14°06' W 170°54'6 5.8 100 / 81010.7 29.9
2017-Apr-20 07:00S 14°06' W 170°48'6 5.8 120 / 91010.1 30.1
2017-Apr-20 06:00S 14°06' W 170°54'0 0.0 120 / 81009.5 30.0
2017-Apr-20 05:00S 14°06' W 170°54'1211.6 090 / 71009.3 30.2
2017-Apr-20 04:00S 14°06' W 170°42'1211.6 100 / 71009.0 30.2
2017-Apr-20 03:00S 14°06' W 170°30'8 8.4 140 / 81008.7 30.2
2017-Apr-20 02:00S 14°12' W 170°24'8 8.4 170 / 81008.7 30.0
2017-Apr-20 01:00S 14°18' W 170°18'121120.6 110 / 61009.3 30.0
2017-Apr-20 00:00S 12°18' W 170°06'120120.0 120 / 71006.0 5.4 29.524.529.9
2017-Apr-19 23:00S 14°18' W 170°06'1211.6 130 / 61010.6 29.9
2017-Apr-19 22:00S 14°18' W 169°54'1211.6 130 / 61011.2 29.9
2017-Apr-19 21:00S 14°18' W 169°42'6 5.8 110 / 51011.9 29.9
2017-Apr-19 20:00S 14°18' W 169°36'1211.6 110 / 71011.8 29.9
2017-Apr-19 19:00S 14°18' W 169°24'1211.6 110 / 61011.6 29.8
2017-Apr-19 18:00S 14°18' W 169°12'1211.6 120 / 71011.2 29.8
2017-Apr-19 17:00S 14°18' W 169°00'8 8.4 160 / 21010.6 29.8
2017-Apr-19 16:00S 14°12' W 168°54'1211.6 030 / 31010.1 29.8
2017-Apr-19 15:00S 14°12' W 168°42'1211.6 110 / 31010.0 29.9
2017-Apr-19 14:00S 14°12' W 168°30'1211.6 020 / 51009.9 30.0
2017-Apr-19 13:00S 14°12' W 168°18'1313.1 050 / 41010.0 30.0
2017-Apr-19 12:00S 14°06' W 168°06'6 5.8 090 / 51006.8 5.4 27.924.229.9
2017-Apr-19 11:00S 14°06' W 168°00'0 0.0 040 / 41010.9 29.8
2017-Apr-19 10:00S 14°06' W 168°00'8 8.4 080 / 51011.0 29.9
2017-Apr-19 09:00S 14°12' W 168°06'0 0.0 100 / 21011.0 30.0
2017-Apr-19 08:00S 14°12' W 168°06'1313.1 320 / 21011.0 30.0
2017-Apr-19 07:00S 14°06' W 167°54'6 5.8 040 / 21010.7 30.0
2017-Apr-19 06:00S 14°06' W 167°48'1313.1 190 / 11010.2 30.1
2017-Apr-19 05:00S 14°00' W 167°36'8 8.4 150 / 31009.8 30.1
2017-Apr-19 04:00S 13°54' W 167°30'8 8.4 130 / 31009.7 30.2
2017-Apr-19 03:00S 13°48' W 167°24'6 6.0 310 / 31009.5 30.0
2017-Apr-19 02:00S 13°42' W 167°24'8 8.4 020 / 51009.4 30.1
2017-Apr-19 01:00S 13°48' W 167°18'6 6.0 240 / 31009.6 30.0
2017-Apr-19 00:00S 13°54' W 167°18'1313.3 010 / 51006.0 5.4 29.024.230.0
2017-Apr-18 23:00S 14°06' W 167°24'8 8.4 030 / 61010.8 29.9
2017-Apr-18 22:00S 14°12' W 167°30'6 6.0 040 / 71011.5 29.9
2017-Apr-18 21:00S 14°18' W 167°30'6 6.0 030 / 81007.2 5.4 29.024.029.7
2017-Apr-18 20:00S 14°24' W 167°30'8 8.4 030 / 111012.4 29.8
2017-Apr-18 19:00S 14°30' W 167°24'1313.1 020 / 101012.1 29.7
2017-Apr-18 18:00S 14°24' W 167°36'8 8.4 020 / 101011.7 29.7
2017-Apr-18 17:00S 14°30' W 167°30'6 5.8 040 / 101011.3 29.8
2017-Apr-18 16:00S 14°30' W 167°24'1211.6 050 / 101010.7 29.8
2017-Apr-18 15:00S 14°30' W 167°36'0 0.0 050 / 91010.4 29.7
2017-Apr-18 14:00S 14°30' W 167°36'8 8.4 020 / 101010.3 29.6
2017-Apr-18 13:00S 14°36' W 167°30'6 5.8 010 / 91010.4 29.8
2017-Apr-18 12:00S 14°36' W 167°24'1211.6 340 / 101007.0 5.4 28.624.629.7
2017-Apr-18 11:00S 14°36' W 167°36'6 5.8 350 / 91011.2 29.8
2017-Apr-18 10:00S 14°36' W 167°42'1717.4 010 / 101011.3 29.7
2017-Apr-18 09:00S 14°36' W 167°24'6 6.0 360 / 81007.510.8 29.023.229.8
2017-Apr-18 08:00S 14°42' W 167°24'1211.6 020 / 81011.3 29.8
2017-Apr-18 07:00S 14°42' W 167°36'6 5.8 240 / 91010.9 29.8
2017-Apr-18 06:00S 14°42' W 167°42'6 5.8 070 / 61010.2 30.0
2017-Apr-18 05:00S 14°42' W 167°36'1313.1 020 / 61010.1 29.8
2017-Apr-18 04:00S 14°48' W 167°24'6 5.8 310 / 21009.8 30.0
2017-Apr-18 03:00S 14°48' W 167°18'1211.6 280 / 51009.4 30.1
2017-Apr-18 02:00S 14°48' W 167°06'1211.6 350 / 61009.2 30.0
2017-Apr-18 01:00S 14°48' W 166°54'1211.6 260 / 81009.5 30.0
2017-Apr-18 00:00S 14°48' W 166°42'8 8.3 230 / 61005.5 5.4 28.224.429.8
2017-Apr-17 23:00S 14°54' W 166°36'1211.6 290 / 61010.2 29.9
2017-Apr-17 22:00S 14°54' W 166°24'1313.1 330 / 111010.7 29.8
2017-Apr-17 21:00S 14°48' W 166°12'8 8.3 350 / 131007.4 5.4 28.624.229.8
2017-Apr-17 20:00S 14°54' W 166°06'1211.6 220 / 171011.1 29.8
2017-Apr-17 19:00S 14°54' W 165°54'1313.1 100 / 131010.9 29.7
2017-Apr-17 18:00S 15°00' W 165°42'6 5.8 320 / 91010.6 29.8
2017-Apr-17 17:00S 15°00' W 165°36'1313.0 310 / 111010.1 29.8
2017-Apr-17 16:00S 15°06' W 165°24'6 6.0 340 / 151009.6 29.8
2017-Apr-17 15:00S 15°12' W 165°24'8 8.3 340 / 121009.3 29.7
2017-Apr-17 14:00S 15°06' W 165°30'0 0.0 320 / 101009.1 29.8
2017-Apr-17 13:00S 15°06' W 165°30'8 8.3 250 / 101008.9 29.8
2017-Apr-17 12:00S 15°12' W 165°24'6 5.8 330 / 91005.2 5.4 28.924.829.8
2017-Apr-17 11:00S 15°12' W 165°30'8 8.3 330 / 81009.8 29.8
2017-Apr-17 10:00S 15°06' W 165°36'8 8.3 320 / 91009.9 29.9
2017-Apr-17 09:00S 15°12' W 165°30'6 6.0 350 / 81009.8 29.8
2017-Apr-17 08:00S 15°18' W 165°30'1313.3 300 / 61009.8 29.8
2017-Apr-17 07:00S 15°30' W 165°36'6 6.0 280 / 71009.4 30.0
2017-Apr-17 06:00S 15°36' W 165°36'1313.3 300 / 41008.6 29.9
2017-Apr-17 05:00S 15°48' W 165°42'8 8.3 280 / 71008.2 30.0
2017-Apr-17 04:00S 15°54' W 165°48'1313.3 300 / 51007.8 29.8
2017-Apr-17 03:00S 16°06' W 165°54'6 6.0 320 / 51007.5 29.5
2017-Apr-17 02:00S 16°12' W 165°54'1211.5 120 / 21007.3 29.4
2017-Apr-17 01:00S 16°12' W 166°06'8 8.3 310 / 41007.4 29.3
2017-Apr-17 00:00S 16°06' W 166°12'6 6.0 300 / 51002.9 5.4 29.024.829.3
2017-Apr-16 23:00S 16°12' W 166°12'6 5.8 030 / 41008.2 29.2
2017-Apr-16 22:00S 16°12' W 166°06'8 8.3 040 / 61008.7 29.1
2017-Apr-16 21:00S 16°18' W 166°00'6 5.8 170 / 21009.4 29.1
2017-Apr-16 20:00S 16°18' W 166°06'8 8.3 210 / 31009.5 29.1
2017-Apr-16 19:00S 16°12' W 166°12'8 8.3 170 / 41009.2 29.0
2017-Apr-16 18:00S 16°18' W 166°06'8 8.3 290 / 21003.8 5.4 27.524.229.0
2017-Apr-16 17:00S 16°24' W 166°00'1211.5 280 / 31008.4 29.0
2017-Apr-16 16:00S 16°24' W 166°12'8 8.3 310 / 31007.8 29.0
2017-Apr-16 15:00S 16°18' W 166°18'8 8.3 100 / 21007.7 29.0
2017-Apr-16 14:00S 16°12' W 166°24'8 8.3 220 / 21007.6 29.1
2017-Apr-16 13:00S 16°06' W 166°30'1313.0 260 / 31007.5 29.3
2017-Apr-16 12:00S 16°00' W 166°42'8 8.3 190 / 31003.0 5.4 27.525.429.4
2017-Apr-16 11:00S 15°54' W 166°48'6 5.8 030 / 41008.1 29.3
2017-Apr-16 10:00S 15°54' W 166°54'1313.0 260 / 111008.3 29.4
2017-Apr-16 09:00S 15°48' W 167°06'8 8.3 240 / 111008.4 29.5
2017-Apr-16 08:00S 15°42' W 167°12'8 8.3 220 / 121008.3 29.6
2017-Apr-16 07:00S 15°36' W 167°18'8 8.3 220 / 121008.1 29.6
2017-Apr-16 06:00S 15°30' W 167°24'8 8.3 240 / 131007.4 29.6
2017-Apr-16 05:00S 15°24' W 167°30'8 8.3 240 / 161006.8 29.7
2017-Apr-16 04:00S 15°18' W 167°36'1818.0 250 / 151006.6 29.7
2017-Apr-16 03:00S 15°00' W 167°36'6 5.8 280 / 51001.0 2.2 29.024.828.0
2017-Apr-16 02:00S 15°00' W 167°42'8 8.3 260 / 111006.3 29.8
2017-Apr-16 01:00S 15°06' W 167°36'8 8.3 240 / 141006.5 29.7
2017-Apr-16 00:00S 15°12' W 167°30'8 8.3 260 / 91002.4 5.4 30.824.629.7
2017-Apr-15 23:00S 15°18' W 167°36'6 5.8 260 / 101007.7 29.7
2017-Apr-15 22:00S 15°18' W 167°42'1313.3 250 / 131007.9 29.7
2017-Apr-15 21:00S 15°06' W 167°48'6 5.8 250 / 101003.9 5.4 29.023.129.6
2017-Apr-15 20:00S 15°06' W 167°54'8 8.3 240 / 111008.6 29.6
2017-Apr-15 19:00S 15°00' W 168°00'1211.6 240 / 101008.3 29.7
2017-Apr-15 18:00S 15°00' W 168°12'6 5.8 240 / 111007.9 29.7
2017-Apr-15 17:00S 15°00' W 168°18'1313.1 230 / 131007.5 29.7
2017-Apr-15 16:00S 14°54' W 168°30'6 5.8 240 / 131007.0 29.7
2017-Apr-15 15:00S 14°54' W 168°36'6 5.8 230 / 121006.9 29.8
2017-Apr-15 14:00S 14°54' W 168°42'8 8.3 220 / 141007.1 29.7
2017-Apr-15 13:00S 15°00' W 168°48'8 8.3 200 / 111007.4 29.7
2017-Apr-15 12:00S 15°06' W 168°42'8 8.3 210 / 111003.2 5.4 28.524.829.6
2017-Apr-15 11:00S 15°12' W 168°48'6 6.0 230 / 141008.1 29.7
2017-Apr-15 10:00S 15°06' W 168°48'1212.0 230 / 161008.0 29.8
2017-Apr-15 09:00S 14°54' W 168°48'8 8.3 210 / 151008.2 29.7
2017-Apr-15 08:00S 14°48' W 168°54'1212.0 230 / 101008.7 29.7
2017-Apr-15 07:00S 15°00' W 168°54'6 6.0 250 / 131008.2 29.7
2017-Apr-15 06:00S 15°06' W 168°54'6 6.0 230 / 91007.5 29.8
2017-Apr-15 05:00S 15°12' W 168°54'6 6.0 250 / 121006.8 29.8
2017-Apr-15 04:00S 15°06' W 168°54'1212.0 240 / 161006.3 29.8
2017-Apr-15 03:00S 14°54' W 168°54'6 6.0 250 / 171005.7 29.8
2017-Apr-15 02:00S 14°48' W 168°54'6 6.0 220 / 201005.5 29.8
2017-Apr-15 01:00S 14°42' W 168°54'8 8.3 230 / 221005.7 29.9
2017-Apr-15 00:00S 14°36' W 168°48'1313.1 230 / 131001.3 5.4 26.519.529.9
2017-Apr-14 23:00S 14°42' W 168°36'1211.6 240 / 181006.4 29.8
2017-Apr-14 22:00S 14°42' W 168°24'6 6.0 260 / 191007.0 29.8
2017-Apr-14 21:00S 14°36' W 168°24'1211.6 270 / 161003.0 5.4 29.924.229.8
2017-Apr-14 20:00S 14°36' W 168°36'6 5.8 250 / 211007.7 29.8
2017-Apr-14 19:00S 14°36' W 168°42'1211.6 260 / 191007.5 29.8
2017-Apr-14 18:00S 14°36' W 168°54'6 5.8 260 / 161007.1 29.8
2017-Apr-14 17:00S 14°36' W 168°48'1211.6 270 / 161006.6 29.9
2017-Apr-14 16:00S 14°36' W 168°36'6 5.8 270 / 201006.0 29.9
2017-Apr-14 15:00S 14°36' W 168°30'0 0.0 290 / 191006.0 29.8
2017-Apr-14 14:00S 14°36' W 168°30'6 5.8 270 / 181006.4 29.9
2017-Apr-14 13:00S 14°36' W 168°36'1313.1 280 / 181006.8 29.9
2017-Apr-14 12:00S 14°30' W 168°48'0 0.0 290 / 101002.0 5.4 29.026.229.9
2017-Apr-14 11:00S 14°30' W 168°48'6 5.8 310 / 161007.1 29.9
2017-Apr-14 10:00S 14°30' W 168°42'1211.6 300 / 151007.1 29.9
2017-Apr-14 09:00S 14°30' W 168°30'8 8.4 290 / 131007.4 29.9
2017-Apr-14 08:00S 14°24' W 168°24'1211.6 300 / 121007.5 29.9
2017-Apr-14 07:00S 14°24' W 168°36'6 5.8 280 / 91007.3 29.9
2017-Apr-14 06:00S 14°24' W 168°42'0 0.0 260 / 101006.5 29.9
2017-Apr-14 05:00S 14°24' W 168°42'1211.6 290 / 111006.0 30.0
2017-Apr-14 04:00S 14°24' W 168°30'6 5.8 280 / 101005.7 30.0
2017-Apr-14 03:00S 14°24' W 168°24'6 5.8 280 / 131005.5 30.0
2017-Apr-14 02:00S 14°24' W 168°30'1211.6 270 / 101005.5 30.0
2017-Apr-14 01:00S 14°24' W 168°42'1313.3 250 / 111005.5 30.0
2017-Apr-14 00:00S 14°12' W 168°48'0 0.0 250 / 101000.5 5.4 31.523.730.0
2017-Apr-13 23:00S 14°12' W 168°48'1211.6 260 / 101006.6 29.9
2017-Apr-13 22:00S 14°12' W 169°00'0 0.0 230 / 111007.3 29.9
2017-Apr-13 21:00S 14°12' W 169°00'0 0.0 210 / 141007.2 29.8
2017-Apr-13 20:00S 14°12' W 169°00'8 8.4 230 / 141007.4 29.8
2017-Apr-13 19:00S 14°06' W 169°06'6 6.0 230 / 131006.9 29.8
2017-Apr-13 18:00S 14°00' W 169°06'1313.1 250 / 151006.6 29.9
2017-Apr-13 17:00S 13°54' W 168°54'8 8.4 220 / 171006.0 29.9
2017-Apr-13 16:00S 14°00' W 168°48'8 8.4 220 / 171005.6 29.9
2017-Apr-13 15:00S 13°54' W 168°54'6 5.8 230 / 171005.5 29.8
2017-Apr-13 14:00S 13°54' W 169°00'0 0.0 250 / 191005.2 29.9
2017-Apr-13 13:00S 13°54' W 169°00'1313.3 240 / 151005.7 29.9
2017-Apr-13 12:00S 13°42' W 169°06'6 5.8 240 / 121002.0 5.4 28.924.829.9
2017-Apr-13 11:00S 13°42' W 169°12'1211.7 240 / 151006.9 29.9
2017-Apr-13 10:00S 13°42' W 169°24'6 5.8 240 / 171007.2 30.0
2017-Apr-13 09:00S 13°42' W 169°30'1211.7 230 / 171007.4 29.9
2017-Apr-13 08:00S 13°42' W 169°42'6 5.8 240 / 131007.4 29.9
2017-Apr-13 07:00S 13°42' W 169°48'1313.1 230 / 171006.9 30.1
2017-Apr-13 06:00S 13°48' W 169°36'6 5.8 200 / 181006.4 30.0
2017-Apr-13 05:00S 13°48' W 169°30'1211.7 210 / 181005.9 30.0
2017-Apr-13 04:00S 13°48' W 169°18'1211.7 220 / 191005.5 30.0
2017-Apr-13 03:00S 13°48' W 169°06'6 5.8 220 / 171005.1 30.0
2017-Apr-13 02:00S 13°48' W 169°00'1211.7 260 / 141005.3 30.1
2017-Apr-13 01:00S 13°48' W 169°12'6 5.8 240 / 121005.8 30.0
2017-Apr-13 00:00S 13°48' W 169°18'1211.7 270 / 131001.9 5.4 31.727.030.0
2017-Apr-12 23:00S 13°48' W 169°30'6 5.8 280 / 131006.9 30.0
2017-Apr-12 22:00S 13°48' W 169°36'1211.7 270 / 121007.5 30.1
2017-Apr-12 21:00S 13°48' W 169°48'6 5.8 270 / 101008.2 30.0
2017-Apr-12 20:00S 13°48' W 169°42'6 5.8 300 / 141008.0 30.1
2017-Apr-12 19:00S 13°48' W 169°36'1717.5 320 / 141007.6 30.0
2017-Apr-12 18:00S 13°48' W 169°18'6 6.0 300 / 141002.8 5.4 29.225.929.9
2017-Apr-12 17:00S 13°54' W 169°18'1211.6 290 / 131007.3 29.9
2017-Apr-12 16:00S 13°54' W 169°06'0 0.0 300 / 101006.8 29.9
2017-Apr-12 15:00S 13°54' W 169°06'6 5.8 290 / 101007.0 30.0
2017-Apr-12 14:00S 13°54' W 169°12'1211.6 300 / 101006.9 29.9
2017-Apr-12 13:00S 13°54' W 169°24'8 8.4 290 / 91007.0 30.0
2017-Apr-12 12:00S 13°48' W 169°30'1313.1 300 / 91003.0 5.4 28.926.330.0
2017-Apr-12 11:00S 13°54' W 169°42'6 5.8 300 / 81007.8 30.1
2017-Apr-12 10:00S 13°54' W 169°48'0 0.0 300 / 71008.0 30.0
2017-Apr-12 09:00S 13°54' W 169°48'1211.6 310 / 81007.8 30.0
2017-Apr-12 08:00S 13°54' W 169°36'6 5.8 290 / 81007.9 30.2
2017-Apr-12 07:00S 13°54' W 169°30'1313.1 290 / 91007.6 30.0
2017-Apr-12 06:00S 14°00' W 169°18'6 5.8 280 / 81007.1 30.1
2017-Apr-12 05:00S 14°00' W 169°12'1211.6 270 / 111006.6 30.1
2017-Apr-12 04:00S 14°00' W 169°00'6 5.8 290 / 91006.4 30.2
2017-Apr-12 03:00S 14°00' W 168°54'6 5.8 270 / 111006.2 30.3
2017-Apr-12 02:00S 14°00' W 168°48'6 5.8 290 / 121006.4 30.2
2017-Apr-12 01:00S 14°00' W 168°54'6 5.8 290 / 101006.9 30.3
2017-Apr-12 00:00S 14°00' W 169°00'1211.6 310 / 101007.4 5.4 31.527.830.3
2017-Apr-11 23:00S 14°00' W 169°12'6 5.8 300 / 91007.8 30.1
2017-Apr-11 22:00S 14°00' W 169°18'1211.6 320 / 91008.5 30.1
2017-Apr-11 21:00S 14°00' W 169°30'6 5.8 320 / 91009.1 30.0
2017-Apr-11 20:00S 14°00' W 169°36'1211.6 320 / 91008.7 30.0
2017-Apr-11 19:00S 14°00' W 169°48'0 0.0 340 / 111008.3 30.1
2017-Apr-11 18:00S 14°00' W 169°48'1211.6 240 / 101007.8 30.0
2017-Apr-11 17:00S 14°00' W 169°36'6 5.8 010 / 91007.7 30.0
2017-Apr-11 16:00S 14°00' W 169°30'1211.6 010 / 81007.4 30.0
2017-Apr-11 15:00S 14°00' W 169°18'8 8.4 100 / 61007.3 30.0
2017-Apr-11 14:00S 14°06' W 169°12'1211.6 030 / 61007.4 30.0
2017-Apr-11 13:00S 14°06' W 169°00'1313.1 030 / 61007.5 30.1
2017-Apr-11 12:00S 14°00' W 168°48'6 6.0 050 / 51003.4 5.4 29.126.530.0
2017-Apr-11 11:00S 14°06' W 168°48'1211.6 020 / 51008.6 30.1
2017-Apr-11 10:00S 14°06' W 169°00'8 8.4 100 / 71008.8 30.1
2017-Apr-11 09:00S 14°00' W 169°06'1313.1 360 / 101004.8 5.4 29.525.930.0
2017-Apr-11 08:00S 14°06' W 169°18'6 5.8 330 / 71008.9 30.3
2017-Apr-11 07:00S 14°06' W 169°24'1211.6 220 / 41008.7 30.1
2017-Apr-11 06:00S 14°06' W 169°36'6 5.8 330 / 51008.3 30.2
2017-Apr-11 05:00S 14°06' W 169°42'6 5.8 050 / 21007.8 30.2
2017-Apr-11 04:00S 14°06' W 169°48'6 5.8 300 / 21007.7 30.1
2017-Apr-11 03:00S 14°06' W 169°42'1211.6 200 / 21007.7 30.0
2017-Apr-11 02:00S 14°06' W 169°30'6 5.8 170 / 21007.6 30.2
2017-Apr-11 01:00S 14°06' W 169°24'1211.6 030 / 71007.8 30.1
2017-Apr-11 00:00S 14°06' W 169°12'8 8.4 030 / 111003.5 5.4 30.125.830.1
2017-Apr-10 23:00S 14°12' W 169°06'0 0.0 030 / 111008.7 30.1
2017-Apr-10 22:00S 14°12' W 169°06'8 8.4 020 / 81009.6 30.0
2017-Apr-10 21:00S 14°18' W 169°12'6 5.8 090 / 141009.6 30.0
2017-Apr-10 20:00S 14°18' W 169°06'0 0.0 040 / 121009.6 29.9
2017-Apr-10 19:00S 14°18' W 169°06'   040 / 111009.2 29.9
Track history (hours):
 
Tides and Currents Weather Stations Pressure Air Temp Water Temp Dewpoint Dewpoint Depression Visibility Wind Speed Wind Dir Waves Ship Positions

Oceanographic research ship Okeanos Explorer (USA)

Ship's website: http://oceanexplorer.noaa.gov/okeanos/

Last reported at 2017-Apr-20 19:00 UTC. Time now 2017-Apr-25 00:54 UTC.
Position S 14°18' W 170°42'.

Length 69 m; draft 5 m.

Type: Other ship. MMSI: 369888000.

Wind from 030 at 2 knots

Barometer 1011.5 mb
Water temperature 29.9 ° C

Date/timePositionNaut miles runAvg speedWind from/ knotsBaromVisibWave heightAir tempDewpointWater temp
2017-Apr-20 19:00S 14°18' W 170°42'0 0.0 030 / 21011.5 29.9
2017-Apr-20 18:00S 14°18' W 170°42'6 6.0 260 / 21011.1 29.9
2017-Apr-20 17:00S 14°24' W 170°42'0 0.0 090 / 51010.6 29.9
2017-Apr-20 16:00S 14°24' W 170°42'6 5.8 130 / 91010.0 29.8
2017-Apr-20 15:00S 14°24' W 170°48'6 5.8 030 / 51009.5 29.8
2017-Apr-20 14:00S 14°24' W 170°54'6 5.8 050 / 61009.6 29.8
2017-Apr-20 13:00S 14°24' W 171°00'1313.3 070 / 91009.7 29.7
2017-Apr-20 12:00S 14°12' W 170°54'0 0.0 090 / 81006.2 5.4 28.525.029.8
2017-Apr-20 11:00S 14°12' W 170°54'6 5.8 090 / 101010.5 29.9
2017-Apr-20 10:00S 14°12' W 170°48'6 5.8 100 / 121010.2 29.9
2017-Apr-20 09:00S 14°12' W 170°54'6 6.0 120 / 111010.4 30.0
2017-Apr-20 08:00S 14°06' W 170°54'6 5.8 100 / 81010.7 29.9
2017-Apr-20 07:00S 14°06' W 170°48'6 5.8 120 / 91010.1 30.1
2017-Apr-20 06:00S 14°06' W 170°54'0 0.0 120 / 81009.5 30.0
2017-Apr-20 05:00S 14°06' W 170°54'1211.6 090 / 71009.3 30.2
2017-Apr-20 04:00S 14°06' W 170°42'1211.6 100 / 71009.0 30.2
2017-Apr-20 03:00S 14°06' W 170°30'8 8.4 140 / 81008.7 30.2
2017-Apr-20 02:00S 14°12' W 170°24'8 8.4 170 / 81008.7 30.0
2017-Apr-20 01:00S 14°18' W 170°18'121120.6 110 / 61009.3 30.0
2017-Apr-20 00:00S 12°18' W 170°06'120120.0 120 / 71006.0 5.4 29.524.529.9
2017-Apr-19 23:00S 14°18' W 170°06'1211.6 130 / 61010.6 29.9
2017-Apr-19 22:00S 14°18' W 169°54'1211.6 130 / 61011.2 29.9
2017-Apr-19 21:00S 14°18' W 169°42'6 5.8 110 / 51011.9 29.9
2017-Apr-19 20:00S 14°18' W 169°36'1211.6 110 / 71011.8 29.9
2017-Apr-19 19:00S 14°18' W 169°24'1211.6 110 / 61011.6 29.8
2017-Apr-19 18:00S 14°18' W 169°12'1211.6 120 / 71011.2 29.8
2017-Apr-19 17:00S 14°18' W 169°00'8 8.4 160 / 21010.6 29.8
2017-Apr-19 16:00S 14°12' W 168°54'1211.6 030 / 31010.1 29.8
2017-Apr-19 15:00S 14°12' W 168°42'1211.6 110 / 31010.0 29.9
2017-Apr-19 14:00S 14°12' W 168°30'1211.6 020 / 51009.9 30.0
2017-Apr-19 13:00S 14°12' W 168°18'1313.1 050 / 41010.0 30.0
2017-Apr-19 12:00S 14°06' W 168°06'6 5.8 090 / 51006.8 5.4 27.924.229.9
2017-Apr-19 11:00S 14°06' W 168°00'0 0.0 040 / 41010.9 29.8
2017-Apr-19 10:00S 14°06' W 168°00'8 8.4 080 / 51011.0 29.9
2017-Apr-19 09:00S 14°12' W 168°06'0 0.0 100 / 21011.0 30.0
2017-Apr-19 08:00S 14°12' W 168°06'1313.1 320 / 21011.0 30.0
2017-Apr-19 07:00S 14°06' W 167°54'6 5.8 040 / 21010.7 30.0
2017-Apr-19 06:00S 14°06' W 167°48'1313.1 190 / 11010.2 30.1
2017-Apr-19 05:00S 14°00' W 167°36'8 8.4 150 / 31009.8 30.1
2017-Apr-19 04:00S 13°54' W 167°30'8 8.4 130 / 31009.7 30.2
2017-Apr-19 03:00S 13°48' W 167°24'6 6.0 310 / 31009.5 30.0
2017-Apr-19 02:00S 13°42' W 167°24'8 8.4 020 / 51009.4 30.1
2017-Apr-19 01:00S 13°48' W 167°18'6 6.0 240 / 31009.6 30.0
2017-Apr-19 00:00S 13°54' W 167°18'1313.3 010 / 51006.0 5.4 29.024.230.0
2017-Apr-18 23:00S 14°06' W 167°24'8 8.4 030 / 61010.8 29.9
2017-Apr-18 22:00S 14°12' W 167°30'6 6.0 040 / 71011.5 29.9
2017-Apr-18 21:00S 14°18' W 167°30'6 6.0 030 / 81007.2 5.4 29.024.029.7
2017-Apr-18 20:00S 14°24' W 167°30'8 8.4 030 / 111012.4 29.8
2017-Apr-18 19:00S 14°30' W 167°24'1313.1 020 / 101012.1 29.7
2017-Apr-18 18:00S 14°24' W 167°36'8 8.4 020 / 101011.7 29.7
2017-Apr-18 17:00S 14°30' W 167°30'6 5.8 040 / 101011.3 29.8
2017-Apr-18 16:00S 14°30' W 167°24'1211.6 050 / 101010.7 29.8
2017-Apr-18 15:00S 14°30' W 167°36'0 0.0 050 / 91010.4 29.7
2017-Apr-18 14:00S 14°30' W 167°36'8 8.4 020 / 101010.3 29.6
2017-Apr-18 13:00S 14°36' W 167°30'6 5.8 010 / 91010.4 29.8
2017-Apr-18 12:00S 14°36' W 167°24'1211.6 340 / 101007.0 5.4 28.624.629.7
2017-Apr-18 11:00S 14°36' W 167°36'6 5.8 350 / 91011.2 29.8
2017-Apr-18 10:00S 14°36' W 167°42'1717.4 010 / 101011.3 29.7
2017-Apr-18 09:00S 14°36' W 167°24'6 6.0 360 / 81007.510.8 29.023.229.8
2017-Apr-18 08:00S 14°42' W 167°24'1211.6 020 / 81011.3 29.8
2017-Apr-18 07:00S 14°42' W 167°36'6 5.8 240 / 91010.9 29.8
2017-Apr-18 06:00S 14°42' W 167°42'6 5.8 070 / 61010.2 30.0
2017-Apr-18 05:00S 14°42' W 167°36'1313.1 020 / 61010.1 29.8
2017-Apr-18 04:00S 14°48' W 167°24'6 5.8 310 / 21009.8 30.0
2017-Apr-18 03:00S 14°48' W 167°18'1211.6 280 / 51009.4 30.1
2017-Apr-18 02:00S 14°48' W 167°06'1211.6 350 / 61009.2 30.0
2017-Apr-18 01:00S 14°48' W 166°54'1211.6 260 / 81009.5 30.0
2017-Apr-18 00:00S 14°48' W 166°42'8 8.3 230 / 61005.5 5.4 28.224.429.8
2017-Apr-17 23:00S 14°54' W 166°36'1211.6 290 / 61010.2 29.9
2017-Apr-17 22:00S 14°54' W 166°24'1313.1 330 / 111010.7 29.8
2017-Apr-17 21:00S 14°48' W 166°12'8 8.3 350 / 131007.4 5.4 28.624.229.8
2017-Apr-17 20:00S 14°54' W 166°06'1211.6 220 / 171011.1 29.8
2017-Apr-17 19:00S 14°54' W 165°54'1313.1 100 / 131010.9 29.7
2017-Apr-17 18:00S 15°00' W 165°42'6 5.8 320 / 91010.6 29.8
2017-Apr-17 17:00S 15°00' W 165°36'1313.0 310 / 111010.1 29.8
2017-Apr-17 16:00S 15°06' W 165°24'6 6.0 340 / 151009.6 29.8
2017-Apr-17 15:00S 15°12' W 165°24'8 8.3 340 / 121009.3 29.7
2017-Apr-17 14:00S 15°06' W 165°30'0 0.0 320 / 101009.1 29.8
2017-Apr-17 13:00S 15°06' W 165°30'8 8.3 250 / 101008.9 29.8
2017-Apr-17 12:00S 15°12' W 165°24'6 5.8 330 / 91005.2 5.4 28.924.829.8
2017-Apr-17 11:00S 15°12' W 165°30'8 8.3 330 / 81009.8 29.8
2017-Apr-17 10:00S 15°06' W 165°36'8 8.3 320 / 91009.9 29.9
2017-Apr-17 09:00S 15°12' W 165°30'6 6.0 350 / 81009.8 29.8
2017-Apr-17 08:00S 15°18' W 165°30'1313.3 300 / 61009.8 29.8
2017-Apr-17 07:00S 15°30' W 165°36'6 6.0 280 / 71009.4 30.0
2017-Apr-17 06:00S 15°36' W 165°36'1313.3 300 / 41008.6 29.9
2017-Apr-17 05:00S 15°48' W 165°42'8 8.3 280 / 71008.2 30.0
2017-Apr-17 04:00S 15°54' W 165°48'1313.3 300 / 51007.8 29.8
2017-Apr-17 03:00S 16°06' W 165°54'6 6.0 320 / 51007.5 29.5
2017-Apr-17 02:00S 16°12' W 165°54'1211.5 120 / 21007.3 29.4
2017-Apr-17 01:00S 16°12' W 166°06'8 8.3 310 / 41007.4 29.3
2017-Apr-17 00:00S 16°06' W 166°12'6 6.0 300 / 51002.9 5.4 29.024.829.3
2017-Apr-16 23:00S 16°12' W 166°12'6 5.8 030 / 41008.2 29.2
2017-Apr-16 22:00S 16°12' W 166°06'8 8.3 040 / 61008.7 29.1
2017-Apr-16 21:00S 16°18' W 166°00'6 5.8 170 / 21009.4 29.1
2017-Apr-16 20:00S 16°18' W 166°06'8 8.3 210 / 31009.5 29.1
2017-Apr-16 19:00S 16°12' W 166°12'8 8.3 170 / 41009.2 29.0
2017-Apr-16 18:00S 16°18' W 166°06'8 8.3 290 / 21003.8 5.4 27.524.229.0
2017-Apr-16 17:00S 16°24' W 166°00'1211.5 280 / 31008.4 29.0
2017-Apr-16 16:00S 16°24' W 166°12'8 8.3 310 / 31007.8 29.0
2017-Apr-16 15:00S 16°18' W 166°18'8 8.3 100 / 21007.7 29.0
2017-Apr-16 14:00S 16°12' W 166°24'8 8.3 220 / 21007.6 29.1
2017-Apr-16 13:00S 16°06' W 166°30'1313.0 260 / 31007.5 29.3
2017-Apr-16 12:00S 16°00' W 166°42'8 8.3 190 / 31003.0 5.4 27.525.429.4
2017-Apr-16 11:00S 15°54' W 166°48'6 5.8 030 / 41008.1 29.3
2017-Apr-16 10:00S 15°54' W 166°54'1313.0 260 / 111008.3 29.4
2017-Apr-16 09:00S 15°48' W 167°06'8 8.3 240 / 111008.4 29.5
2017-Apr-16 08:00S 15°42' W 167°12'8 8.3 220 / 121008.3 29.6
2017-Apr-16 07:00S 15°36' W 167°18'8 8.3 220 / 121008.1 29.6
2017-Apr-16 06:00S 15°30' W 167°24'8 8.3 240 / 131007.4 29.6
2017-Apr-16 05:00S 15°24' W 167°30'8 8.3 240 / 161006.8 29.7
2017-Apr-16 04:00S 15°18' W 167°36'1818.0 250 / 151006.6 29.7
2017-Apr-16 03:00S 15°00' W 167°36'6 5.8 280 / 51001.0 2.2 29.024.828.0
2017-Apr-16 02:00S 15°00' W 167°42'8 8.3 260 / 111006.3 29.8
2017-Apr-16 01:00S 15°06' W 167°36'8 8.3 240 / 141006.5 29.7
2017-Apr-16 00:00S 15°12' W 167°30'8 8.3 260 / 91002.4 5.4 30.824.629.7
2017-Apr-15 23:00S 15°18' W 167°36'6 5.8 260 / 101007.7 29.7
2017-Apr-15 22:00S 15°18' W 167°42'1313.3 250 / 131007.9 29.7
2017-Apr-15 21:00S 15°06' W 167°48'6 5.8 250 / 101003.9 5.4 29.023.129.6
2017-Apr-15 20:00S 15°06' W 167°54'8 8.3 240 / 111008.6 29.6
2017-Apr-15 19:00S 15°00' W 168°00'1211.6 240 / 101008.3 29.7
2017-Apr-15 18:00S 15°00' W 168°12'6 5.8 240 / 111007.9 29.7
2017-Apr-15 17:00S 15°00' W 168°18'1313.1 230 / 131007.5 29.7
2017-Apr-15 16:00S 14°54' W 168°30'6 5.8 240 / 131007.0 29.7
2017-Apr-15 15:00S 14°54' W 168°36'6 5.8 230 / 121006.9 29.8
2017-Apr-15 14:00S 14°54' W 168°42'8 8.3 220 / 141007.1 29.7
2017-Apr-15 13:00S 15°00' W 168°48'8 8.3 200 / 111007.4 29.7
2017-Apr-15 12:00S 15°06' W 168°42'8 8.3 210 / 111003.2 5.4 28.524.829.6
2017-Apr-15 11:00S 15°12' W 168°48'6 6.0 230 / 141008.1 29.7
2017-Apr-15 10:00S 15°06' W 168°48'1212.0 230 / 161008.0 29.8
2017-Apr-15 09:00S 14°54' W 168°48'8 8.3 210 / 151008.2 29.7
2017-Apr-15 08:00S 14°48' W 168°54'1212.0 230 / 101008.7 29.7
2017-Apr-15 07:00S 15°00' W 168°54'6 6.0 250 / 131008.2 29.7
2017-Apr-15 06:00S 15°06' W 168°54'6 6.0 230 / 91007.5 29.8
2017-Apr-15 05:00S 15°12' W 168°54'6 6.0 250 / 121006.8 29.8
2017-Apr-15 04:00S 15°06' W 168°54'1212.0 240 / 161006.3 29.8
2017-Apr-15 03:00S 14°54' W 168°54'6 6.0 250 / 171005.7 29.8
2017-Apr-15 02:00S 14°48' W 168°54'6 6.0 220 / 201005.5 29.8
2017-Apr-15 01:00S 14°42' W 168°54'8 8.3 230 / 221005.7 29.9
2017-Apr-15 00:00S 14°36' W 168°48'1313.1 230 / 131001.3 5.4 26.519.529.9
2017-Apr-14 23:00S 14°42' W 168°36'1211.6 240 / 181006.4 29.8
2017-Apr-14 22:00S 14°42' W 168°24'6 6.0 260 / 191007.0 29.8
2017-Apr-14 21:00S 14°36' W 168°24'1211.6 270 / 161003.0 5.4 29.924.229.8
2017-Apr-14 20:00S 14°36' W 168°36'6 5.8 250 / 211007.7 29.8
2017-Apr-14 19:00S 14°36' W 168°42'1211.6 260 / 191007.5 29.8
2017-Apr-14 18:00S 14°36' W 168°54'6 5.8 260 / 161007.1 29.8
2017-Apr-14 17:00S 14°36' W 168°48'1211.6 270 / 161006.6 29.9
2017-Apr-14 16:00S 14°36' W 168°36'6 5.8 270 / 201006.0 29.9
2017-Apr-14 15:00S 14°36' W 168°30'0 0.0 290 / 191006.0 29.8
2017-Apr-14 14:00S 14°36' W 168°30'6 5.8 270 / 181006.4 29.9
2017-Apr-14 13:00S 14°36' W 168°36'1313.1 280 / 181006.8 29.9
2017-Apr-14 12:00S 14°30' W 168°48'0 0.0 290 / 101002.0 5.4 29.026.229.9
2017-Apr-14 11:00S 14°30' W 168°48'6 5.8 310 / 161007.1 29.9
2017-Apr-14 10:00S 14°30' W 168°42'1211.6 300 / 151007.1 29.9
2017-Apr-14 09:00S 14°30' W 168°30'8 8.4 290 / 131007.4 29.9
2017-Apr-14 08:00S 14°24' W 168°24'1211.6 300 / 121007.5 29.9
2017-Apr-14 07:00S 14°24' W 168°36'6 5.8 280 / 91007.3 29.9
2017-Apr-14 06:00S 14°24' W 168°42'0 0.0 260 / 101006.5 29.9
2017-Apr-14 05:00S 14°24' W 168°42'1211.6 290 / 111006.0 30.0
2017-Apr-14 04:00S 14°24' W 168°30'6 5.8 280 / 101005.7 30.0
2017-Apr-14 03:00S 14°24' W 168°24'6 5.8 280 / 131005.5 30.0
2017-Apr-14 02:00S 14°24' W 168°30'1211.6 270 / 101005.5 30.0
2017-Apr-14 01:00S 14°24' W 168°42'1313.3 250 / 111005.5 30.0
2017-Apr-14 00:00S 14°12' W 168°48'0 0.0 250 / 101000.5 5.4 31.523.730.0
2017-Apr-13 23:00S 14°12' W 168°48'1211.6 260 / 101006.6 29.9
2017-Apr-13 22:00S 14°12' W 169°00'0 0.0 230 / 111007.3 29.9
2017-Apr-13 21:00S 14°12' W 169°00'0 0.0 210 / 141007.2 29.8
2017-Apr-13 20:00S 14°12' W 169°00'8 8.4 230 / 141007.4 29.8
2017-Apr-13 19:00S 14°06' W 169°06'6 6.0 230 / 131006.9 29.8
2017-Apr-13 18:00S 14°00' W 169°06'1313.1 250 / 151006.6 29.9
2017-Apr-13 17:00S 13°54' W 168°54'8 8.4 220 / 171006.0 29.9
2017-Apr-13 16:00S 14°00' W 168°48'8 8.4 220 / 171005.6 29.9
2017-Apr-13 15:00S 13°54' W 168°54'6 5.8 230 / 171005.5 29.8
2017-Apr-13 14:00S 13°54' W 169°00'0 0.0 250 / 191005.2 29.9
2017-Apr-13 13:00S 13°54' W 169°00'1313.3 240 / 151005.7 29.9
2017-Apr-13 12:00S 13°42' W 169°06'6 5.8 240 / 121002.0 5.4 28.924.829.9
2017-Apr-13 11:00S 13°42' W 169°12'1211.7 240 / 151006.9 29.9
2017-Apr-13 10:00S 13°42' W 169°24'6 5.8 240 / 171007.2 30.0
2017-Apr-13 09:00S 13°42' W 169°30'1211.7 230 / 171007.4 29.9
2017-Apr-13 08:00S 13°42' W 169°42'6 5.8 240 / 131007.4 29.9
2017-Apr-13 07:00S 13°42' W 169°48'1313.1 230 / 171006.9 30.1
2017-Apr-13 06:00S 13°48' W 169°36'6 5.8 200 / 181006.4 30.0
2017-Apr-13 05:00S 13°48' W 169°30'1211.7 210 / 181005.9 30.0
2017-Apr-13 04:00S 13°48' W 169°18'1211.7 220 / 191005.5 30.0
2017-Apr-13 03:00S 13°48' W 169°06'6 5.8 220 / 171005.1 30.0
2017-Apr-13 02:00S 13°48' W 169°00'1211.7 260 / 141005.3 30.1
2017-Apr-13 01:00S 13°48' W 169°12'6 5.8 240 / 121005.8 30.0
2017-Apr-13 00:00S 13°48' W 169°18'1211.7 270 / 131001.9 5.4 31.727.030.0
2017-Apr-12 23:00S 13°48' W 169°30'6 5.8 280 / 131006.9 30.0
2017-Apr-12 22:00S 13°48' W 169°36'1211.7 270 / 121007.5 30.1
2017-Apr-12 21:00S 13°48' W 169°48'6 5.8 270 / 101008.2 30.0
2017-Apr-12 20:00S 13°48' W 169°42'6 5.8 300 / 141008.0 30.1
2017-Apr-12 19:00S 13°48' W 169°36'1717.5 320 / 141007.6 30.0
2017-Apr-12 18:00S 13°48' W 169°18'6 6.0 300 / 141002.8 5.4 29.225.929.9
2017-Apr-12 17:00S 13°54' W 169°18'1211.6 290 / 131007.3 29.9
2017-Apr-12 16:00S 13°54' W 169°06'0 0.0 300 / 101006.8 29.9
2017-Apr-12 15:00S 13°54' W 169°06'6 5.8 290 / 101007.0 30.0
2017-Apr-12 14:00S 13°54' W 169°12'1211.6 300 / 101006.9 29.9
2017-Apr-12 13:00S 13°54' W 169°24'8 8.4 290 / 91007.0 30.0
2017-Apr-12 12:00S 13°48' W 169°30'1313.1 300 / 91003.0 5.4 28.926.330.0
2017-Apr-12 11:00S 13°54' W 169°42'6 5.8 300 / 81007.8 30.1
2017-Apr-12 10:00S 13°54' W 169°48'0 0.0 300 / 71008.0 30.0
2017-Apr-12 09:00S 13°54' W 169°48'1211.6 310 / 81007.8 30.0
2017-Apr-12 08:00S 13°54' W 169°36'6 5.8 290 / 81007.9 30.2
2017-Apr-12 07:00S 13°54' W 169°30'1313.1 290 / 91007.6 30.0
2017-Apr-12 06:00S 14°00' W 169°18'6 5.8 280 / 81007.1 30.1
2017-Apr-12 05:00S 14°00' W 169°12'1211.6 270 / 111006.6 30.1
2017-Apr-12 04:00S 14°00' W 169°00'6 5.8 290 / 91006.4 30.2
2017-Apr-12 03:00S 14°00' W 168°54'6 5.8 270 / 111006.2 30.3
2017-Apr-12 02:00S 14°00' W 168°48'6 5.8 290 / 121006.4 30.2
2017-Apr-12 01:00S 14°00' W 168°54'6 5.8 290 / 101006.9 30.3
2017-Apr-12 00:00S 14°00' W 169°00'1211.6 310 / 101007.4 5.4 31.527.830.3
2017-Apr-11 23:00S 14°00' W 169°12'6 5.8 300 / 91007.8 30.1
2017-Apr-11 22:00S 14°00' W 169°18'1211.6 320 / 91008.5 30.1
2017-Apr-11 21:00S 14°00' W 169°30'6 5.8 320 / 91009.1 30.0
2017-Apr-11 20:00S 14°00' W 169°36'1211.6 320 / 91008.7 30.0
2017-Apr-11 19:00S 14°00' W 169°48'0 0.0 340 / 111008.3 30.1
2017-Apr-11 18:00S 14°00' W 169°48'1211.6 240 / 101007.8 30.0
2017-Apr-11 17:00S 14°00' W 169°36'6 5.8 010 / 91007.7 30.0
2017-Apr-11 16:00S 14°00' W 169°30'1211.6 010 / 81007.4 30.0
2017-Apr-11 15:00S 14°00' W 169°18'8 8.4 100 / 61007.3 30.0
2017-Apr-11 14:00S 14°06' W 169°12'1211.6 030 / 61007.4 30.0
2017-Apr-11 13:00S 14°06' W 169°00'1313.1 030 / 61007.5 30.1
2017-Apr-11 12:00S 14°00' W 168°48'6 6.0 050 / 51003.4 5.4 29.126.530.0
2017-Apr-11 11:00S 14°06' W 168°48'1211.6 020 / 51008.6 30.1
2017-Apr-11 10:00S 14°06' W 169°00'8 8.4 100 / 71008.8 30.1
2017-Apr-11 09:00S 14°00' W 169°06'1313.1 360 / 101004.8 5.4 29.525.930.0
2017-Apr-11 08:00S 14°06' W 169°18'6 5.8 330 / 71008.9 30.3
2017-Apr-11 07:00S 14°06' W 169°24'1211.6 220 / 41008.7 30.1
2017-Apr-11 06:00S 14°06' W 169°36'6 5.8 330 / 51008.3 30.2
2017-Apr-11 05:00S 14°06' W 169°42'6 5.8 050 / 21007.8 30.2
2017-Apr-11 04:00S 14°06' W 169°48'6 5.8 300 / 21007.7 30.1
2017-Apr-11 03:00S 14°06' W 169°42'1211.6 200 / 21007.7 30.0
2017-Apr-11 02:00S 14°06' W 169°30'6 5.8 170 / 21007.6 30.2
2017-Apr-11 01:00S 14°06' W 169°24'1211.6 030 / 71007.8 30.1
2017-Apr-11 00:00S 14°06' W 169°12'8 8.4 030 / 111003.5 5.4 30.125.830.1
2017-Apr-10 23:00S 14°12' W 169°06'0 0.0 030 / 111008.7 30.1
2017-Apr-10 22:00S 14°12' W 169°06'8 8.4 020 / 81009.6 30.0
2017-Apr-10 21:00S 14°18' W 169°12'6 5.8 090 / 141009.6 30.0
2017-Apr-10 20:00S 14°18' W 169°06'0 0.0 040 / 121009.6 29.9
2017-Apr-10 19:00S 14°18' W 169°06'   040 / 111009.2 29.9

Dump ship's entire track history